createdAt,value
2019-01-25T00:00:40.576Z,99.90
2019-01-25T00:03:10.328Z,99.90
2019-01-25T00:05:38.754Z,99.90
2019-01-25T00:08:06.968Z,99.90
2019-01-25T00:10:35.178Z,99.90
2019-01-25T00:13:03.394Z,99.90
2019-01-25T00:15:31.622Z,99.90
2019-01-25T00:17:59.832Z,99.90
2019-01-25T00:20:28.054Z,99.90
2019-01-25T00:22:56.276Z,99.90
2019-01-25T00:25:24.493Z,99.90
2019-01-25T00:27:52.714Z,99.90
2019-01-25T00:30:20.946Z,99.90
2019-01-25T00:32:49.168Z,99.90
2019-01-25T00:35:17.404Z,99.90
2019-01-25T00:37:45.616Z,99.90
2019-01-25T00:40:17.097Z,99.90
2019-01-25T00:42:45.410Z,99.90
2019-01-25T00:45:13.620Z,99.90
2019-01-25T00:47:41.841Z,99.90
2019-01-25T00:50:19.149Z,99.90
2019-01-25T00:52:47.630Z,99.90
2019-01-25T00:55:15.847Z,99.90
2019-01-25T00:57:44.069Z,99.90
2019-01-25T01:00:18.191Z,99.90
2019-01-25T01:02:46.408Z,99.90
2019-01-25T01:05:14.777Z,99.90
2019-01-25T01:07:42.989Z,99.90
2019-01-25T01:10:14.133Z,99.90
2019-01-25T01:12:41.917Z,99.90
2019-01-25T01:15:13.464Z,99.90
2019-01-25T01:17:41.680Z,99.90
2019-01-25T01:20:19.034Z,99.90
2019-01-25T01:22:48.129Z,99.90
2019-01-25T01:25:16.341Z,99.90
2019-01-25T01:27:44.570Z,99.90
2019-01-25T01:30:16.042Z,99.90
2019-01-25T01:32:44.249Z,99.90
2019-01-25T01:35:12.476Z,99.90
2019-01-25T01:37:40.693Z,99.90
2019-01-25T01:40:21.515Z,99.90
2019-01-25T01:42:44.611Z,99.90
2019-01-25T01:45:12.834Z,99.90
2019-01-25T01:47:41.044Z,99.90
2019-01-25T01:50:12.657Z,99.90
2019-01-25T01:52:41.134Z,99.90
2019-01-25T01:55:09.361Z,99.90
2019-01-25T01:57:37.572Z,99.90
2019-01-25T02:00:11.846Z,99.90
2019-01-25T02:02:40.069Z,99.90
2019-01-25T02:05:09.249Z,99.90
2019-01-25T02:07:37.465Z,99.90
2019-01-25T02:10:12.309Z,99.90
2019-01-25T02:12:40.521Z,99.90
2019-01-25T02:15:11.975Z,99.90
2019-01-25T02:17:40.190Z,99.90
2019-01-25T02:20:11.674Z,99.90
2019-01-25T02:22:39.899Z,99.90
2019-01-25T02:25:08.120Z,99.90
2019-01-25T02:27:36.332Z,99.90
2019-01-25T02:30:07.827Z,99.90
2019-01-25T02:32:36.038Z,99.90
2019-01-25T02:35:06.794Z,99.90
2019-01-25T02:37:35.015Z,99.90
2019-01-25T02:40:04.793Z,99.90
2019-01-25T02:42:33.412Z,99.90
2019-01-25T02:45:01.659Z,99.90
2019-01-25T02:47:29.873Z,99.90
2019-01-25T02:49:58.095Z,99.90
2019-01-25T02:52:26.315Z,99.90
2019-01-25T02:54:54.524Z,99.90
2019-01-25T02:57:22.748Z,99.90
2019-01-25T02:59:50.973Z,99.90
2019-01-25T03:02:19.184Z,99.90
2019-01-25T03:04:47.404Z,99.90
2019-01-25T03:07:15.617Z,99.90
2019-01-25T03:09:43.882Z,99.90
2019-01-25T03:12:12.072Z,99.90
2019-01-25T03:14:40.280Z,99.90
2019-01-25T03:17:08.501Z,99.90
2019-01-25T03:19:36.727Z,99.90
2019-01-25T03:22:04.972Z,99.90
2019-01-25T03:24:33.255Z,99.90
2019-01-25T03:27:01.462Z,99.90
2019-01-25T03:29:29.686Z,99.90
2019-01-25T03:31:57.908Z,99.90
2019-01-25T03:34:26.121Z,99.90
2019-01-25T03:36:54.354Z,99.90
2019-01-25T03:39:22.569Z,99.90
2019-01-25T03:41:50.785Z,99.90
2019-01-25T03:44:18.998Z,99.90
2019-01-25T03:46:47.226Z,99.90
2019-01-25T03:49:15.446Z,99.90
2019-01-25T03:51:43.664Z,99.90
2019-01-25T03:54:11.896Z,99.90
2019-01-25T03:56:40.106Z,99.90
2019-01-25T03:59:08.333Z,99.90
2019-01-25T04:01:36.537Z,99.90
2019-01-25T04:04:04.828Z,99.90
2019-01-25T04:06:33.053Z,99.90
2019-01-25T04:09:01.281Z,99.90
2019-01-25T04:11:29.503Z,99.90
2019-01-25T04:13:57.714Z,99.90
2019-01-25T04:16:25.945Z,99.90
2019-01-25T04:18:54.192Z,99.90
2019-01-25T04:21:22.408Z,99.90
2019-01-25T04:23:50.625Z,99.90
2019-01-25T04:26:18.860Z,99.90
2019-01-25T04:28:47.067Z,99.90
2019-01-25T04:31:15.285Z,99.90
2019-01-25T04:33:43.521Z,99.90
2019-01-25T04:36:11.734Z,99.90
2019-01-25T04:38:39.950Z,99.90
2019-01-25T04:41:11.848Z,99.90
2019-01-25T04:43:38.353Z,99.90
2019-01-25T04:46:06.572Z,99.90
2019-01-25T04:48:34.788Z,99.90
2019-01-25T04:51:07.561Z,99.90
2019-01-25T04:53:36.832Z,99.90
2019-01-25T04:56:05.916Z,99.90
2019-01-25T04:58:34.150Z,99.90
2019-01-25T05:01:09.388Z,99.90
2019-01-25T05:03:37.604Z,99.90
2019-01-25T05:06:05.965Z,99.90
2019-01-25T05:08:34.193Z,99.90
2019-01-25T05:11:02.407Z,99.90
2019-01-25T05:13:31.728Z,99.90
2019-01-25T05:16:00.629Z,99.90
2019-01-25T05:18:28.857Z,99.90
2019-01-25T05:20:57.069Z,99.90
2019-01-25T05:23:25.348Z,99.90
2019-01-25T05:25:53.665Z,99.90
2019-01-25T05:28:21.886Z,99.90
2019-01-25T05:30:53.360Z,99.90
2019-01-25T05:33:21.590Z,99.90
2019-01-25T05:35:49.810Z,99.90
2019-01-25T05:38:18.025Z,99.90
2019-01-25T05:40:46.248Z,99.90
2019-01-25T05:43:14.474Z,99.90
2019-01-25T05:45:46.064Z,99.90
2019-01-25T05:48:14.268Z,99.90
2019-01-25T05:50:42.478Z,99.90
2019-01-25T05:53:10.700Z,99.90
2019-01-25T05:55:38.923Z,99.90
2019-01-25T05:58:08.562Z,99.90
2019-01-25T06:00:38.414Z,99.90
2019-01-25T06:03:14.559Z,99.90
2019-01-25T06:05:42.778Z,99.90
2019-01-25T06:08:35.400Z,99.90
2019-01-25T06:11:06.433Z,99.90
2019-01-25T06:13:34.648Z,99.90
2019-01-25T06:16:02.884Z,99.90
2019-01-25T06:18:31.098Z,99.90
2019-01-25T06:20:59.317Z,99.90
2019-01-25T06:23:27.549Z,99.90
2019-01-25T06:25:57.692Z,99.90
2019-01-25T06:28:25.908Z,99.90
2019-01-25T06:30:54.144Z,99.90
2019-01-25T06:33:22.367Z,99.90
2019-01-25T06:35:50.740Z,99.90
2019-01-25T06:38:18.972Z,99.90
2019-01-25T06:40:47.181Z,99.90
2019-01-25T06:43:15.392Z,99.90
2019-01-25T06:45:43.629Z,99.90
2019-01-25T06:48:11.875Z,99.90
2019-01-25T06:50:40.082Z,99.90
2019-01-25T06:53:08.296Z,99.90
2019-01-25T06:55:36.551Z,99.90
2019-01-25T06:58:10.069Z,99.90
2019-01-25T07:00:39.936Z,99.90
2019-01-25T07:03:08.156Z,99.90
2019-01-25T07:05:36.365Z,99.90
2019-01-25T07:08:04.592Z,99.90
2019-01-25T07:10:32.804Z,99.90
2019-01-25T07:13:01.027Z,99.90
2019-01-25T07:15:29.254Z,99.90
2019-01-25T07:17:57.470Z,99.90
2019-01-25T07:20:25.678Z,99.90
2019-01-25T07:22:53.900Z,99.90
2019-01-25T07:25:22.112Z,99.90
2019-01-25T07:27:50.326Z,99.90
2019-01-25T07:30:18.537Z,99.90
2019-01-25T07:32:46.753Z,99.90
2019-01-25T07:35:14.992Z,99.90
2019-01-25T07:37:43.274Z,99.90
2019-01-25T07:40:11.760Z,99.90
2019-01-25T07:42:40.102Z,99.90
2019-01-25T07:45:11.585Z,99.90
2019-01-25T07:47:39.805Z,99.90
2019-01-25T07:50:10.994Z,99.90
2019-01-25T07:52:39.237Z,99.90
2019-01-25T07:55:09.902Z,99.90
2019-01-25T07:57:38.111Z,99.90
2019-01-25T08:00:15.110Z,99.90
2019-01-25T08:02:43.377Z,99.90
2019-01-25T08:05:11.578Z,99.90
2019-01-25T08:07:39.812Z,99.90
2019-01-25T08:10:20.028Z,99.90
2019-01-25T08:12:48.227Z,99.90
2019-01-25T08:15:19.970Z,99.90
2019-01-25T08:17:48.219Z,99.90
2019-01-25T08:20:16.535Z,99.90
2019-01-25T08:22:44.817Z,99.90
2019-01-25T08:25:13.086Z,99.90
2019-01-25T08:27:41.294Z,99.90
2019-01-25T08:30:21.788Z,99.90
2019-01-25T08:32:50.785Z,99.90
2019-01-25T08:35:19.235Z,99.90
2019-01-25T08:37:47.634Z,99.90
2019-01-25T08:40:17.197Z,99.90
2019-01-25T08:42:45.517Z,99.90
2019-01-25T08:45:17.746Z,99.90
2019-01-25T08:47:46.075Z,99.90
2019-01-25T08:50:17.900Z,99.90
2019-01-25T08:52:46.251Z,99.90
2019-01-25T08:55:14.496Z,99.90
2019-01-25T08:57:42.693Z,99.90
2019-01-25T09:00:19.997Z,99.90
2019-01-25T09:02:48.211Z,99.90
2019-01-25T09:05:18.166Z,99.90
2019-01-25T09:07:46.458Z,99.90
2019-01-25T09:10:17.967Z,99.90
2019-01-25T09:12:46.262Z,99.90
2019-01-25T09:15:17.962Z,99.90
2019-01-25T09:17:46.233Z,99.90
2019-01-25T09:20:17.720Z,99.90
2019-01-25T09:22:45.952Z,99.90
2019-01-25T09:25:14.232Z,99.90
2019-01-25T09:27:42.426Z,99.90
2019-01-25T09:30:13.815Z,99.90
2019-01-25T09:32:42.018Z,99.90
2019-01-25T09:35:10.785Z,99.90
2019-01-25T09:37:38.993Z,99.90
2019-01-25T09:40:10.464Z,99.90
2019-01-25T09:42:38.676Z,99.90
2019-01-25T09:45:10.364Z,99.90
2019-01-25T09:47:38.588Z,99.90
2019-01-25T09:50:15.700Z,99.90
2019-01-25T09:52:43.942Z,99.90
2019-01-25T09:55:20.929Z,99.90
2019-01-25T09:57:49.144Z,99.90
2019-01-25T10:00:26.405Z,99.90
2019-01-25T10:02:54.624Z,99.90
2019-01-25T10:05:22.825Z,99.90
2019-01-25T10:07:51.044Z,99.90
2019-01-25T10:10:19.256Z,99.90
2019-01-25T10:12:47.460Z,99.90
2019-01-25T10:15:18.931Z,99.90
2019-01-25T10:17:47.154Z,99.90
2019-01-25T10:20:16.317Z,99.50
2019-01-25T10:22:44.542Z,98.80
2019-01-25T10:25:12.748Z,97.10
2019-01-25T10:27:40.965Z,95.40
2019-01-25T10:30:24.726Z,95.00
2019-01-25T10:32:52.949Z,94.80
2019-01-25T10:35:22.021Z,95.20
2019-01-25T10:37:52.074Z,95.60
2019-01-25T10:40:24.639Z,96.50
2019-01-25T10:42:53.697Z,96.50
2019-01-25T10:45:25.324Z,95.80
2019-01-25T10:47:53.526Z,95.00
2019-01-25T10:50:21.749Z,94.30
2019-01-25T10:52:49.956Z,93.00
2019-01-25T10:55:18.164Z,90.50
2019-01-25T10:57:46.403Z,89.40
2019-01-25T11:00:17.852Z,88.90
2019-01-25T11:02:46.070Z,90.90
2019-01-25T11:05:17.542Z,93.20
2019-01-25T11:07:45.763Z,94.50
2019-01-25T11:10:13.965Z,95.40
2019-01-25T11:12:43.147Z,95.60
2019-01-25T11:15:15.242Z,95.30
2019-01-25T11:17:43.448Z,95.10
2019-01-25T11:20:14.929Z,94.70
2019-01-25T11:22:43.150Z,94.80
2019-01-25T11:25:32.790Z,93.30
2019-01-25T11:28:01.021Z,93.70
2019-01-25T11:30:29.240Z,93.40
2019-01-25T11:32:57.485Z,93.30
2019-01-25T11:35:25.710Z,94.60
2019-01-25T11:37:54.013Z,96.00
2019-01-25T11:40:25.833Z,96.60
2019-01-25T11:42:54.043Z,95.40
2019-01-25T11:45:23.252Z,94.50
2019-01-25T11:47:51.480Z,93.30
2019-01-25T11:50:21.727Z,94.10
2019-01-25T11:52:49.949Z,94.10
2019-01-25T11:55:19.345Z,92.20
2019-01-25T11:57:47.573Z,88.40
2019-01-25T12:00:24.340Z,84.70
2019-01-25T12:02:52.598Z,82.90
2019-01-25T12:05:23.374Z,81.50
2019-01-25T12:07:52.538Z,82.00
2019-01-25T12:10:24.037Z,81.00
2019-01-25T12:12:52.262Z,80.20
2019-01-25T12:15:20.477Z,82.10
2019-01-25T12:17:48.726Z,82.70
2019-01-25T12:20:20.317Z,83.30
2019-01-25T12:22:48.521Z,88.50
2019-01-25T12:25:16.745Z,90.00
2019-01-25T12:27:44.949Z,90.50
2019-01-25T12:30:22.625Z,91.30
2019-01-25T12:32:50.834Z,92.10
2019-01-25T12:35:19.059Z,92.50
2019-01-25T12:37:47.278Z,92.60
2019-01-25T12:40:18.323Z,93.00
2019-01-25T12:42:46.796Z,92.60
2019-01-25T12:45:21.001Z,92.60
2019-01-25T12:47:49.212Z,91.80
2019-01-25T12:50:32.866Z,91.10
2019-01-25T12:53:02.708Z,90.80
2019-01-25T12:55:32.788Z,90.40
2019-01-25T12:58:00.979Z,91.40
2019-01-25T13:00:30.368Z,93.50
2019-01-25T13:02:58.665Z,94.60
2019-01-25T13:05:27.002Z,95.00
2019-01-25T13:07:55.219Z,95.90
2019-01-25T13:10:26.137Z,96.00
2019-01-25T13:12:54.364Z,96.60
2019-01-25T13:15:22.658Z,96.80
2019-01-25T13:17:50.931Z,96.50
2019-01-25T13:20:21.912Z,96.70
2019-01-25T13:22:50.140Z,96.70
2019-01-25T13:25:18.341Z,96.90
2019-01-25T13:27:47.802Z,96.70
2019-01-25T13:30:24.638Z,97.00
2019-01-25T13:32:52.979Z,97.20
2019-01-25T13:35:21.370Z,97.30
2019-01-25T13:37:52.908Z,97.20
2019-01-25T13:40:26.390Z,96.90
2019-01-25T13:42:54.682Z,97.10
2019-01-25T13:45:24.944Z,96.70
2019-01-25T13:47:54.570Z,96.20
2019-01-25T13:50:28.128Z,96.10
2019-01-25T13:52:57.010Z,96.30
2019-01-25T13:55:25.239Z,96.20
2019-01-25T13:57:53.469Z,96.50
2019-01-25T14:00:27.399Z,96.50
2019-01-25T14:02:55.734Z,97.20
2019-01-25T14:05:23.962Z,97.40
2019-01-25T14:07:52.591Z,97.40
2019-01-25T14:10:27.029Z,98.10
2019-01-25T14:12:55.263Z,98.20
2019-01-25T14:15:24.713Z,98.30
2019-01-25T14:17:52.996Z,98.30
2019-01-25T14:20:23.900Z,98.20
2019-01-25T14:22:52.708Z,99.00
2019-01-25T14:25:21.068Z,98.50
2019-01-25T14:27:49.390Z,99.00
2019-01-25T14:30:32.381Z,98.80
2019-01-25T14:33:00.638Z,99.20
2019-01-25T14:35:28.864Z,99.10
2019-01-25T14:37:57.093Z,99.40
2019-01-25T14:40:25.347Z,99.30
2019-01-25T14:42:53.604Z,99.10
2019-01-25T14:45:21.822Z,99.20
2019-01-25T14:47:50.035Z,99.20
2019-01-25T14:50:24.425Z,99.00
2019-01-25T14:52:52.673Z,99.20
2019-01-25T14:55:20.877Z,99.50
2019-01-25T14:57:49.167Z,99.50
2019-01-25T15:00:17.381Z,99.50
2019-01-25T15:02:45.630Z,99.20
2019-01-25T15:05:16.961Z,99.40
2019-01-25T15:07:45.234Z,99.70
2019-01-25T15:10:16.989Z,99.90
2019-01-25T15:12:46.061Z,99.90
2019-01-25T15:15:15.341Z,99.90
2019-01-25T15:17:43.632Z,99.90
2019-01-25T15:20:18.265Z,99.90
2019-01-25T15:22:46.510Z,99.90
2019-01-25T15:25:14.725Z,99.90
2019-01-25T15:27:43.010Z,99.90
2019-01-25T15:30:19.940Z,99.90
2019-01-25T15:32:48.166Z,99.90
2019-01-25T15:35:19.002Z,99.90
2019-01-25T15:37:47.225Z,99.90
2019-01-25T15:40:19.116Z,99.90
2019-01-25T15:42:50.785Z,99.90
2019-01-25T15:45:21.647Z,99.90
2019-01-25T15:47:49.903Z,99.90
2019-01-25T15:50:23.821Z,99.90
2019-01-25T15:52:52.033Z,99.90
2019-01-25T15:55:20.342Z,99.90
2019-01-25T15:57:48.557Z,99.90
2019-01-25T16:00:20.169Z,99.90
2019-01-25T16:02:48.398Z,99.90
2019-01-25T16:05:18.949Z,99.90
2019-01-25T16:07:47.227Z,99.90
2019-01-25T16:10:18.387Z,99.90
2019-01-25T16:12:46.595Z,99.90
2019-01-25T16:15:18.249Z,99.90
2019-01-25T16:17:46.540Z,99.90
2019-01-25T16:20:16.988Z,99.90
2019-01-25T16:22:45.280Z,99.90
2019-01-25T16:25:16.971Z,99.90
2019-01-25T16:27:45.208Z,99.90
2019-01-25T16:30:19.557Z,99.90
2019-01-25T16:32:47.773Z,99.90
2019-01-25T16:35:16.065Z,99.90
2019-01-25T16:37:44.296Z,99.90
2019-01-25T16:40:15.779Z,99.90
2019-01-25T16:42:44.137Z,99.90
2019-01-25T16:45:21.241Z,99.90
2019-01-25T16:47:49.465Z,99.90
2019-01-25T16:50:23.610Z,99.90
2019-01-25T16:52:47.606Z,99.90
2019-01-25T16:55:16.669Z,99.90
2019-01-25T16:57:46.261Z,99.90
2019-01-25T17:00:29.482Z,99.90
2019-01-25T17:02:57.700Z,99.90
2019-01-25T17:05:25.929Z,99.90
2019-01-25T17:07:54.140Z,99.90
2019-01-25T17:10:22.360Z,99.90
2019-01-25T17:12:50.581Z,99.90
2019-01-25T17:15:18.790Z,99.90
2019-01-25T17:17:47.014Z,99.90
2019-01-25T17:20:21.334Z,99.90
2019-01-25T17:22:48.603Z,99.90
2019-01-25T17:25:16.805Z,99.90
2019-01-25T17:27:45.026Z,99.90
2019-01-25T17:30:27.753Z,99.90
2019-01-25T17:32:58.101Z,99.90
2019-01-25T17:35:26.308Z,99.90
2019-01-25T17:37:54.525Z,99.90
2019-01-25T17:40:25.845Z,99.90
2019-01-25T17:42:54.063Z,99.90
2019-01-25T17:45:22.273Z,99.90
2019-01-25T17:47:50.472Z,99.90
2019-01-25T17:50:18.710Z,99.90
2019-01-25T17:52:46.908Z,99.90
2019-01-25T17:55:17.915Z,99.90
2019-01-25T17:57:46.132Z,99.90
2019-01-25T18:00:21.857Z,99.90
2019-01-25T18:02:50.071Z,99.90
2019-01-25T18:05:18.289Z,99.90
2019-01-25T18:07:46.531Z,99.90
2019-01-25T18:10:19.728Z,99.90
2019-01-25T18:12:47.978Z,99.90
2019-01-25T18:15:18.290Z,99.90
2019-01-25T18:17:46.492Z,99.90
2019-01-25T18:20:19.597Z,99.90
2019-01-25T18:22:47.805Z,99.90
2019-01-25T18:25:21.786Z,99.90
2019-01-25T18:27:55.983Z,99.90
2019-01-25T18:30:30.225Z,99.90
2019-01-25T18:32:58.424Z,99.90
2019-01-25T18:35:26.643Z,99.90
2019-01-25T18:37:54.875Z,99.90
2019-01-25T18:40:23.089Z,99.90
2019-01-25T18:42:51.302Z,99.90
2019-01-25T18:45:19.837Z,99.90
2019-01-25T18:47:48.072Z,99.90
2019-01-25T18:50:17.178Z,99.90
2019-01-25T18:52:45.432Z,99.90
2019-01-25T18:55:17.165Z,99.90
2019-01-25T18:57:45.370Z,99.90
2019-01-25T19:00:16.884Z,99.90
2019-01-25T19:02:45.165Z,99.90
2019-01-25T19:05:13.418Z,99.90
2019-01-25T19:07:41.601Z,99.90
2019-01-25T19:10:16.124Z,99.90
2019-01-25T19:12:44.372Z,99.90
2019-01-25T19:15:15.829Z,99.90
2019-01-25T19:17:44.053Z,99.90
2019-01-25T19:20:13.909Z,99.90
2019-01-25T19:22:42.126Z,99.90
2019-01-25T19:25:11.878Z,99.90
2019-01-25T19:27:40.084Z,99.90
2019-01-25T19:30:20.553Z,99.90
2019-01-25T19:32:49.397Z,99.90
2019-01-25T19:35:17.678Z,99.90
2019-01-25T19:37:45.897Z,99.90
2019-01-25T19:40:18.238Z,99.90
2019-01-25T19:42:46.473Z,99.90
2019-01-25T19:45:14.686Z,99.90
2019-01-25T19:47:42.907Z,99.90
2019-01-25T19:50:17.038Z,99.90
2019-01-25T19:52:45.261Z,99.90
2019-01-25T19:55:22.502Z,99.90
2019-01-25T19:57:50.790Z,99.90
2019-01-25T20:00:24.898Z,99.90
2019-01-25T20:02:53.104Z,99.90
2019-01-25T20:05:27.541Z,99.90
2019-01-25T20:07:55.749Z,99.90
2019-01-25T20:10:23.973Z,99.90
2019-01-25T20:12:52.183Z,99.90
2019-01-25T20:15:22.534Z,99.90
2019-01-25T20:17:50.737Z,99.90
2019-01-25T20:20:24.959Z,99.90
2019-01-25T20:22:53.179Z,99.90
2019-01-25T20:25:21.390Z,99.90
2019-01-25T20:27:49.600Z,99.90
2019-01-25T20:30:21.558Z,99.90
2019-01-25T20:32:49.761Z,99.90
2019-01-25T20:35:21.400Z,99.90
2019-01-25T20:37:49.627Z,99.90
2019-01-25T20:40:17.896Z,99.90
2019-01-25T20:42:46.981Z,99.90
2019-01-25T20:45:29.916Z,99.90
2019-01-25T20:47:58.131Z,99.90
2019-01-25T20:50:29.265Z,99.90
2019-01-25T20:52:57.489Z,99.90
2019-01-25T20:55:26.567Z,99.90
2019-01-25T20:57:56.613Z,99.90
2019-01-25T21:00:27.693Z,99.90
2019-01-25T21:02:55.969Z,99.90
2019-01-25T21:05:24.218Z,99.90
2019-01-25T21:07:52.426Z,99.90
2019-01-25T21:10:23.973Z,99.90
2019-01-25T21:12:52.282Z,99.90
2019-01-25T21:15:23.732Z,99.90
2019-01-25T21:17:51.981Z,99.90
2019-01-25T21:20:28.950Z,99.90
2019-01-25T21:22:57.165Z,99.90
2019-01-25T21:25:25.378Z,99.90
2019-01-25T21:27:53.574Z,99.90
2019-01-25T21:30:24.697Z,99.90
2019-01-25T21:32:52.906Z,99.90
2019-01-25T21:35:21.129Z,99.90
2019-01-25T21:37:49.361Z,99.90
2019-01-25T21:40:21.213Z,99.90
2019-01-25T21:42:49.438Z,99.90
2019-01-25T21:45:21.073Z,99.90
2019-01-25T21:47:49.450Z,99.90
2019-01-25T21:50:23.637Z,99.90
2019-01-25T21:52:51.844Z,99.90
2019-01-25T21:55:20.049Z,99.90
2019-01-25T21:57:48.276Z,99.90
2019-01-25T22:00:22.293Z,99.90
2019-01-25T22:02:50.501Z,99.90
2019-01-25T22:05:18.785Z,99.90
2019-01-25T22:07:46.988Z,99.90
2019-01-25T22:10:21.079Z,99.90
2019-01-25T22:12:49.305Z,99.90
2019-01-25T22:15:18.894Z,99.90
2019-01-25T22:17:47.109Z,99.90
2019-01-25T22:20:24.204Z,99.90
2019-01-25T22:22:52.427Z,99.90
2019-01-25T22:25:20.700Z,99.90
2019-01-25T22:27:51.740Z,99.90
2019-01-25T22:30:25.618Z,99.90
2019-01-25T22:32:53.840Z,99.90
2019-01-25T22:35:22.047Z,99.90
2019-01-25T22:37:50.268Z,99.90
2019-01-25T22:40:24.502Z,99.90
2019-01-25T22:42:53.261Z,99.90
2019-01-25T22:45:24.909Z,99.90
2019-01-25T22:47:53.121Z,99.90
2019-01-25T22:50:23.976Z,99.90
2019-01-25T22:52:52.178Z,99.90
2019-01-25T22:55:22.518Z,99.90
2019-01-25T22:57:51.075Z,99.90
2019-01-25T23:00:50.920Z,99.90
2019-01-25T23:03:31.201Z,99.90
2019-01-25T23:06:20.809Z,99.90
2019-01-25T23:08:49.020Z,99.90
2019-01-25T23:11:17.224Z,99.90
2019-01-25T23:13:45.445Z,99.90
2019-01-25T23:16:13.652Z,99.90
2019-01-25T23:18:41.865Z,99.90
2019-01-25T23:21:10.095Z,99.90
2019-01-25T23:23:38.296Z,99.90
2019-01-25T23:26:06.548Z,99.90
2019-01-25T23:28:34.837Z,99.90
2019-01-25T23:31:03.054Z,99.90
2019-01-25T23:33:31.320Z,99.90
2019-01-25T23:35:59.760Z,99.90
2019-01-25T23:38:28.122Z,99.90
2019-01-25T23:40:56.392Z,99.90
2019-01-25T23:43:24.676Z,99.90
2019-01-25T23:45:52.873Z,99.90
2019-01-25T23:48:21.092Z,99.90
2019-01-25T23:50:49.329Z,99.90
2019-01-25T23:53:17.536Z,99.90
2019-01-25T23:55:45.748Z,99.90
2019-01-25T23:58:13.956Z,99.90
